createdAt,value
2023-03-08T00:01:36.443Z,5.39
2023-03-08T00:04:05.381Z,5.39
2023-03-08T00:06:36.878Z,5.41
2023-03-08T00:09:05.242Z,5.43
2023-03-08T00:11:35.030Z,5.45
2023-03-08T00:14:03.381Z,5.46
2023-03-08T00:16:31.753Z,5.46
2023-03-08T00:19:00.267Z,5.45
2023-03-08T00:21:28.548Z,5.47
2023-03-08T00:23:56.984Z,5.46
2023-03-08T00:26:25.393Z,5.43
2023-03-08T00:28:55.069Z,5.44
2023-03-08T00:31:23.566Z,5.43
2023-03-08T00:33:54.187Z,5.44
2023-03-08T00:36:23.184Z,5.45
2023-03-08T00:38:52.612Z,5.43
2023-03-08T00:41:21.179Z,5.41
2023-03-08T00:43:49.531Z,5.37
2023-03-08T00:46:19.365Z,5.34
2023-03-08T00:48:47.912Z,5.31
2023-03-08T00:51:18.051Z,5.33
2023-03-08T00:53:46.684Z,5.33
2023-03-08T00:56:16.802Z,5.31
2023-03-08T00:58:45.285Z,5.29
2023-03-08T01:01:16.773Z,5.29
2023-03-08T01:03:46.607Z,5.25
2023-03-08T01:06:21.192Z,5.23
2023-03-08T01:08:49.529Z,5.20
2023-03-08T01:11:19.658Z,5.19
2023-03-08T01:13:48.523Z,5.17
2023-03-08T01:16:19.584Z,5.16
2023-03-08T01:18:49.365Z,5.16
2023-03-08T01:21:18.235Z,5.15
2023-03-08T01:23:46.571Z,5.15
2023-03-08T01:26:17.190Z,5.15
2023-03-08T01:28:45.999Z,5.15
2023-03-08T01:31:16.201Z,5.14
2023-03-08T01:33:45.358Z,5.11
2023-03-08T01:36:18.861Z,5.09
2023-03-08T01:38:47.805Z,5.09
2023-03-08T01:41:20.521Z,5.10
2023-03-08T01:43:50.235Z,5.10
2023-03-08T01:46:27.254Z,5.11
2023-03-08T01:49:02.555Z,5.11
2023-03-08T01:51:38.460Z,5.10
2023-03-08T01:54:11.437Z,5.08
2023-03-08T01:56:42.895Z,5.07
2023-03-08T01:59:12.829Z,5.09
2023-03-08T02:01:41.741Z,5.06
2023-03-08T02:04:11.084Z,5.03
2023-03-08T02:06:40.916Z,4.99
2023-03-08T02:09:09.832Z,4.98
2023-03-08T02:11:41.932Z,4.96
2023-03-08T02:14:10.277Z,4.95
2023-03-08T02:16:39.063Z,4.92
2023-03-08T02:19:13.545Z,4.91
2023-03-08T02:21:43.379Z,4.94
2023-03-08T02:24:21.634Z,4.93
2023-03-08T02:26:52.700Z,4.92
2023-03-08T02:29:21.013Z,4.90
2023-03-08T02:31:49.382Z,4.89
2023-03-08T02:34:17.732Z,4.88
2023-03-08T02:36:46.060Z,4.90
2023-03-08T02:39:14.526Z,4.89
2023-03-08T02:41:44.236Z,4.89
2023-03-08T02:44:12.484Z,4.89
2023-03-08T02:46:40.930Z,4.91
2023-03-08T02:49:09.312Z,4.91
2023-03-08T02:51:37.624Z,4.92
2023-03-08T02:54:06.238Z,4.90
2023-03-08T02:56:37.276Z,4.86
2023-03-08T02:59:06.989Z,4.84
2023-03-08T03:01:35.345Z,4.81
2023-03-08T03:04:03.841Z,4.81
2023-03-08T03:06:42.178Z,4.82
2023-03-08T03:09:11.356Z,4.81
2023-03-08T03:11:41.671Z,4.77
2023-03-08T03:14:18.954Z,4.70
2023-03-08T03:16:56.598Z,4.65
2023-03-08T03:19:24.929Z,4.65
2023-03-08T03:21:53.226Z,4.67
2023-03-08T03:24:21.648Z,4.66
2023-03-08T03:26:51.904Z,4.66
2023-03-08T03:29:21.846Z,4.68
2023-03-08T03:31:50.350Z,4.69
2023-03-08T03:34:18.652Z,4.67
2023-03-08T03:36:47.027Z,4.70
2023-03-08T03:39:15.338Z,4.73
2023-03-08T03:41:43.678Z,4.79
2023-03-08T03:44:12.055Z,4.78
2023-03-08T03:46:41.784Z,4.76
2023-03-08T03:49:10.128Z,4.74
2023-03-08T03:51:38.525Z,4.77
2023-03-08T03:54:07.488Z,4.71
2023-03-08T03:56:35.894Z,4.72
2023-03-08T03:59:04.416Z,4.66
2023-03-08T04:01:33.914Z,4.60
2023-03-08T04:04:04.323Z,4.62
2023-03-08T04:06:34.172Z,4.59
2023-03-08T04:09:05.208Z,4.59
2023-03-08T04:11:35.602Z,4.53
2023-03-08T04:14:04.837Z,4.50
2023-03-08T04:16:34.732Z,4.51
2023-03-08T04:19:06.153Z,4.48
2023-03-08T04:21:35.508Z,4.45
2023-03-08T04:24:04.412Z,4.45
2023-03-08T04:26:32.870Z,4.40
2023-03-08T04:29:05.549Z,4.36
2023-03-08T04:31:35.672Z,4.41
2023-03-08T04:34:06.349Z,4.42
2023-03-08T04:36:35.390Z,4.41
2023-03-08T04:39:04.172Z,4.39
2023-03-08T04:41:32.498Z,4.40
2023-03-08T04:44:00.788Z,4.39
2023-03-08T04:46:29.593Z,4.40
2023-03-08T04:48:57.956Z,4.40
2023-03-08T04:51:28.486Z,4.37
2023-03-08T04:53:57.049Z,4.36
2023-03-08T04:56:25.430Z,4.37
2023-03-08T04:58:53.747Z,4.38
2023-03-08T05:01:24.045Z,4.40
2023-03-08T05:03:53.675Z,4.39
2023-03-08T05:06:23.393Z,4.35
2023-03-08T05:08:53.764Z,4.35
2023-03-08T05:11:24.595Z,4.36
2023-03-08T05:13:54.712Z,4.37
2023-03-08T05:16:23.626Z,4.38
2023-03-08T05:18:52.021Z,4.37
2023-03-08T05:21:22.259Z,4.36
2023-03-08T05:23:51.041Z,4.35
2023-03-08T05:26:21.525Z,4.36
2023-03-08T05:28:49.955Z,4.33
2023-03-08T05:31:19.859Z,4.29
2023-03-08T05:33:51.151Z,4.26
2023-03-08T05:36:21.536Z,4.23
2023-03-08T05:38:54.138Z,4.22
2023-03-08T05:41:23.808Z,4.23
2023-03-08T05:43:52.169Z,4.25
2023-03-08T05:46:21.072Z,4.21
2023-03-08T05:48:49.379Z,4.19
2023-03-08T05:51:19.168Z,4.18
2023-03-08T05:53:48.154Z,4.19
2023-03-08T05:56:18.385Z,4.18
2023-03-08T05:58:48.590Z,4.18
2023-03-08T06:01:19.084Z,4.20
2023-03-08T06:03:49.552Z,4.21
2023-03-08T06:06:18.773Z,4.22
2023-03-08T06:08:47.891Z,4.21
2023-03-08T06:11:16.704Z,4.23
2023-03-08T06:13:45.431Z,4.25
2023-03-08T06:16:15.452Z,4.29
2023-03-08T06:18:44.647Z,4.38
2023-03-08T06:21:15.186Z,4.43
2023-03-08T06:23:45.471Z,4.51
2023-03-08T06:26:14.462Z,4.57
2023-03-08T06:28:43.473Z,4.60
2023-03-08T06:31:16.121Z,4.64
2023-03-08T06:33:44.696Z,4.69
2023-03-08T06:36:15.082Z,4.70
2023-03-08T06:38:43.946Z,4.71
2023-03-08T06:41:14.345Z,4.74
2023-03-08T06:43:42.944Z,4.78
2023-03-08T06:46:13.692Z,4.79
2023-03-08T06:48:43.556Z,4.80
2023-03-08T06:51:12.833Z,4.83
2023-03-08T06:53:41.304Z,4.86
2023-03-08T06:56:10.615Z,4.87
2023-03-08T06:58:39.169Z,4.88
2023-03-08T07:01:09.702Z,4.96
2023-03-08T07:03:38.909Z,4.99
2023-03-08T07:06:10.423Z,5.05
2023-03-08T07:08:39.487Z,5.11
2023-03-08T07:11:08.717Z,5.17
2023-03-08T07:13:37.641Z,5.23
2023-03-08T07:16:10.302Z,5.29
2023-03-08T07:18:39.226Z,5.35
2023-03-08T07:21:10.251Z,5.42
2023-03-08T07:23:38.613Z,5.52
2023-03-08T07:26:07.973Z,5.61
2023-03-08T07:28:36.624Z,5.73
2023-03-08T07:31:05.177Z,5.82
2023-03-08T07:33:34.019Z,5.91
2023-03-08T07:36:03.065Z,6.02
2023-03-08T07:38:32.841Z,6.15
2023-03-08T07:41:01.225Z,6.26
2023-03-08T07:43:29.530Z,6.34
2023-03-08T07:46:01.409Z,6.36
2023-03-08T07:48:30.052Z,6.35
2023-03-08T07:51:03.750Z,6.32
2023-03-08T07:53:34.432Z,6.28
2023-03-08T07:56:03.277Z,6.23
2023-03-08T07:58:31.983Z,6.21
2023-03-08T08:01:00.306Z,6.16
2023-03-08T08:03:30.437Z,6.11
2023-03-08T08:06:03.153Z,6.11
2023-03-08T08:08:33.145Z,6.13
2023-03-08T08:11:01.425Z,6.15
2023-03-08T08:13:29.768Z,6.16
2023-03-08T08:16:01.747Z,6.19
2023-03-08T08:18:30.536Z,6.21
2023-03-08T08:21:02.935Z,6.23
2023-03-08T08:23:33.212Z,6.28
2023-03-08T08:26:01.541Z,6.38
2023-03-08T08:28:30.395Z,6.46
2023-03-08T08:30:59.793Z,6.53
2023-03-08T08:33:29.480Z,6.59
2023-03-08T08:35:58.524Z,6.67
2023-03-08T08:38:27.743Z,6.73
2023-03-08T08:41:00.445Z,6.78
2023-03-08T08:43:28.992Z,6.84
2023-03-08T08:45:59.712Z,6.87
2023-03-08T08:48:29.047Z,6.92
2023-03-08T08:50:59.335Z,6.96
2023-03-08T08:53:28.667Z,7.03
2023-03-08T08:55:58.432Z,7.15
2023-03-08T08:58:27.042Z,7.25
2023-03-08T09:00:55.318Z,7.33
2023-03-08T09:03:23.677Z,7.39
2023-03-08T09:05:52.043Z,7.45
2023-03-08T09:08:20.363Z,7.51
2023-03-08T09:10:48.781Z,7.57
2023-03-08T09:13:18.475Z,7.62
2023-03-08T09:15:46.869Z,7.67
2023-03-08T09:18:15.232Z,7.73
2023-03-08T09:20:43.552Z,7.78
2023-03-08T09:23:11.937Z,7.83
2023-03-08T09:25:40.284Z,7.85
2023-03-08T09:28:08.614Z,7.89
2023-03-08T09:30:38.404Z,7.90
2023-03-08T09:33:06.984Z,7.93
2023-03-08T09:35:35.506Z,7.99
2023-03-08T09:38:04.506Z,8.03
2023-03-08T09:40:39.937Z,8.09
2023-03-08T09:43:13.165Z,8.18
2023-03-08T09:45:42.916Z,8.26
2023-03-08T09:48:18.637Z,8.34
2023-03-08T09:50:50.441Z,8.39
2023-03-08T09:53:25.419Z,8.43
2023-03-08T09:55:58.053Z,8.48
2023-03-08T09:58:33.525Z,8.52
2023-03-08T10:01:15.366Z,8.58
2023-03-08T10:04:14.794Z,8.66
2023-03-08T10:06:49.411Z,8.73
2023-03-08T10:09:31.695Z,8.82
2023-03-08T10:12:13.416Z,8.97
2023-03-08T10:14:46.804Z,9.09
2023-03-08T10:17:21.730Z,9.10
2023-03-08T10:19:55.442Z,9.09
2023-03-08T10:22:28.730Z,9.03
2023-03-08T10:25:02.031Z,9.02
2023-03-08T10:27:35.321Z,9.00
2023-03-08T10:30:14.948Z,9.04
2023-03-08T10:32:50.463Z,9.10
2023-03-08T10:35:20.095Z,9.18
2023-03-08T10:37:52.619Z,9.24
2023-03-08T10:40:22.928Z,9.32
2023-03-08T10:42:54.739Z,9.38
2023-03-08T10:45:25.484Z,9.44
2023-03-08T10:48:00.819Z,9.50
2023-03-08T10:50:31.468Z,9.52
2023-03-08T10:53:10.740Z,9.47
2023-03-08T10:55:45.132Z,9.45
2023-03-08T10:58:35.984Z,9.46
2023-03-08T11:01:07.386Z,9.48
2023-03-08T11:03:37.173Z,9.52
2023-03-08T11:06:14.761Z,9.58
2023-03-08T11:08:54.081Z,9.62
2023-03-08T11:11:22.751Z,9.64
2023-03-08T11:13:52.715Z,9.64
2023-03-08T11:16:36.072Z,9.64
2023-03-08T11:19:14.752Z,9.58
2023-03-08T11:21:52.705Z,9.48
2023-03-08T11:24:34.232Z,9.53
2023-03-08T11:27:16.923Z,9.62
2023-03-08T11:30:01.163Z,9.73
2023-03-08T11:32:45.718Z,9.81
2023-03-08T11:35:25.406Z,9.84
2023-03-08T11:38:00.996Z,9.86
2023-03-08T11:40:33.649Z,9.85
2023-03-08T11:43:15.373Z,9.90
2023-03-08T11:45:51.123Z,9.84
2023-03-08T11:48:46.612Z,9.83
2023-03-08T11:51:23.267Z,9.83
2023-03-08T11:54:00.445Z,9.91
2023-03-08T11:56:47.236Z,10.03
2023-03-08T11:59:24.998Z,10.06
2023-03-08T12:01:57.642Z,10.11
2023-03-08T12:04:32.281Z,10.14
2023-03-08T12:07:07.278Z,10.19
2023-03-08T12:09:40.024Z,10.19
2023-03-08T12:12:22.221Z,10.19
2023-03-08T12:14:57.999Z,10.16
2023-03-08T12:17:31.740Z,10.12
2023-03-08T12:20:00.176Z,10.13
2023-03-08T12:22:44.700Z,10.15
2023-03-08T12:25:24.094Z,10.15
2023-03-08T12:27:59.208Z,10.18
2023-03-08T12:30:40.946Z,10.17
2023-03-08T12:33:13.742Z,10.15
2023-03-08T12:35:53.012Z,10.13
2023-03-08T12:38:35.580Z,10.15
2023-03-08T12:41:07.015Z,10.13
2023-03-08T12:43:38.119Z,10.11
2023-03-08T12:46:09.426Z,10.10
2023-03-08T12:48:42.148Z,10.09
2023-03-08T12:51:23.966Z,10.09
2023-03-08T12:54:02.561Z,10.07
2023-03-08T12:56:33.892Z,10.07
2023-03-08T12:59:04.052Z,10.10
2023-03-08T13:01:39.153Z,10.11
2023-03-08T13:04:39.252Z,10.09
2023-03-08T13:07:30.293Z,10.07
2023-03-08T13:10:09.336Z,10.10
2023-03-08T13:13:05.484Z,10.14
2023-03-08T13:15:33.872Z,10.14
2023-03-08T13:18:08.762Z,10.16
2023-03-08T13:20:55.155Z,10.17
2023-03-08T13:23:30.273Z,10.20
2023-03-08T13:26:15.298Z,10.28
2023-03-08T13:28:48.422Z,10.37
2023-03-08T13:31:19.079Z,10.43
2023-03-08T13:33:49.981Z,10.49
2023-03-08T13:36:21.271Z,10.51
2023-03-08T13:38:58.551Z,10.55
2023-03-08T13:41:36.233Z,10.59
2023-03-08T13:44:06.133Z,10.66
2023-03-08T13:46:36.033Z,10.72
2023-03-08T13:49:04.504Z,10.80
2023-03-08T13:51:33.255Z,10.89
2023-03-08T13:54:02.203Z,10.93
2023-03-08T13:56:31.043Z,10.97
2023-03-08T13:59:01.736Z,11.03
2023-03-08T14:01:30.224Z,11.13
2023-03-08T14:03:59.348Z,11.21
2023-03-08T14:06:30.180Z,11.31
2023-03-08T14:09:02.144Z,11.43
2023-03-08T14:11:33.253Z,11.60
2023-03-08T14:14:09.348Z,11.61
2023-03-08T14:16:41.917Z,11.67
2023-03-08T14:19:13.421Z,11.71
2023-03-08T14:21:49.832Z,11.76
2023-03-08T14:24:22.240Z,11.85
2023-03-08T14:27:00.463Z,11.90
2023-03-08T14:29:31.708Z,12.00
2023-03-08T14:32:07.178Z,12.07
2023-03-08T14:34:39.377Z,12.13
2023-03-08T14:37:15.344Z,12.17
2023-03-08T14:39:46.296Z,12.19
2023-03-08T14:42:22.025Z,12.26
2023-03-08T14:44:54.107Z,12.30
2023-03-08T14:47:24.958Z,12.37
2023-03-08T14:49:57.612Z,12.44
2023-03-08T14:52:28.684Z,12.55
2023-03-08T14:54:57.042Z,12.75
2023-03-08T14:57:28.127Z,12.85
2023-03-08T15:00:07.639Z,12.99
2023-03-08T15:02:36.877Z,13.13
2023-03-08T15:05:05.987Z,13.17
2023-03-08T15:07:37.560Z,13.15
2023-03-08T15:10:13.111Z,13.19
2023-03-08T15:12:42.410Z,13.17
2023-03-08T15:15:15.612Z,13.10
2023-03-08T15:17:44.812Z,13.03
2023-03-08T15:20:14.320Z,12.98
2023-03-08T15:22:45.808Z,12.95
2023-03-08T15:25:15.778Z,12.90
2023-03-08T15:27:44.084Z,12.83
2023-03-08T15:30:25.728Z,12.77
2023-03-08T15:32:54.835Z,12.71
2023-03-08T15:35:23.466Z,12.64
2023-03-08T15:37:52.609Z,12.58
2023-03-08T15:40:22.413Z,12.53
2023-03-08T15:42:50.764Z,12.50
2023-03-08T15:45:20.575Z,12.47
2023-03-08T15:47:57.428Z,12.45
2023-03-08T15:50:26.949Z,12.41
2023-03-08T15:52:55.927Z,12.35
2023-03-08T15:55:25.942Z,12.28
2023-03-08T15:57:55.626Z,12.20
2023-03-08T16:00:26.987Z,12.14
2023-03-08T16:02:55.533Z,12.08
2023-03-08T16:05:25.204Z,12.02
2023-03-08T16:07:57.786Z,12.05
2023-03-08T16:10:26.882Z,12.05
2023-03-08T16:12:55.331Z,12.02
2023-03-08T16:15:25.321Z,12.01
2023-03-08T16:17:53.749Z,12.01
2023-03-08T16:20:23.281Z,11.98
2023-03-08T16:22:51.963Z,11.96
2023-03-08T16:25:22.534Z,11.92
2023-03-08T16:27:51.788Z,11.82
2023-03-08T16:30:20.968Z,11.73
2023-03-08T16:33:00.002Z,11.63
2023-03-08T16:35:28.361Z,11.55
2023-03-08T16:37:56.692Z,11.47
2023-03-08T16:40:31.138Z,11.40
2023-03-08T16:42:59.520Z,11.35
2023-03-08T16:45:33.953Z,11.29
2023-03-08T16:48:05.116Z,11.23
2023-03-08T16:50:33.501Z,11.17
2023-03-08T16:53:01.847Z,11.12
2023-03-08T16:55:30.273Z,11.07
2023-03-08T16:57:58.788Z,11.03
2023-03-08T17:00:27.682Z,11.00
2023-03-08T17:03:06.558Z,10.96
2023-03-08T17:05:39.410Z,10.93
2023-03-08T17:08:07.981Z,10.88
2023-03-08T17:10:40.449Z,10.82
2023-03-08T17:13:09.193Z,10.80
2023-03-08T17:15:42.147Z,10.79
2023-03-08T17:18:12.072Z,10.76
2023-03-08T17:20:41.314Z,10.73
2023-03-08T17:23:20.897Z,10.72
2023-03-08T17:25:49.233Z,10.71
2023-03-08T17:28:17.830Z,10.72
2023-03-08T17:30:46.183Z,10.73
2023-03-08T17:33:17.760Z,10.75
2023-03-08T17:35:46.315Z,10.77
2023-03-08T17:38:15.095Z,10.78
2023-03-08T17:40:44.231Z,10.78
2023-03-08T17:43:12.775Z,10.76
2023-03-08T17:45:41.215Z,10.75
2023-03-08T17:48:11.210Z,10.76
2023-03-08T17:50:41.039Z,10.76
2023-03-08T17:53:12.643Z,10.76
2023-03-08T17:55:42.362Z,10.77
2023-03-08T17:58:10.766Z,10.76
2023-03-08T18:00:39.238Z,10.76
2023-03-08T18:03:07.786Z,10.76
2023-03-08T18:05:36.116Z,10.77
2023-03-08T18:08:05.853Z,10.83
2023-03-08T18:10:34.225Z,10.87
2023-03-08T18:13:02.559Z,10.87
2023-03-08T18:15:30.962Z,10.87
2023-03-08T18:17:59.487Z,10.89
2023-03-08T18:20:29.563Z,10.89
2023-03-08T18:23:00.816Z,10.90
2023-03-08T18:25:30.881Z,10.93
2023-03-08T18:27:59.376Z,10.93
2023-03-08T18:30:28.047Z,10.95
2023-03-08T18:32:56.439Z,10.93
2023-03-08T18:35:24.932Z,10.88
2023-03-08T18:37:53.302Z,10.80
2023-03-08T18:40:21.741Z,10.74
2023-03-08T18:42:51.418Z,10.69
2023-03-08T18:45:19.888Z,10.65
2023-03-08T18:47:50.663Z,10.61
2023-03-08T18:50:20.278Z,10.58
2023-03-08T18:52:50.859Z,10.47
2023-03-08T18:55:19.280Z,10.42
2023-03-08T18:57:47.631Z,10.39
2023-03-08T19:00:19.579Z,10.39
2023-03-08T19:02:48.009Z,10.31
2023-03-08T19:05:17.503Z,10.19
2023-03-08T19:07:46.679Z,10.16
2023-03-08T19:10:15.780Z,10.16
2023-03-08T19:12:44.732Z,10.15
2023-03-08T19:15:13.599Z,10.03
2023-03-08T19:17:43.383Z,9.94
2023-03-08T19:20:12.888Z,9.89
2023-03-08T19:22:45.955Z,9.84
2023-03-08T19:25:17.257Z,9.79
2023-03-08T19:27:45.722Z,9.70
2023-03-08T19:30:14.540Z,9.56
2023-03-08T19:32:49.524Z,9.54
2023-03-08T19:35:17.927Z,9.51
2023-03-08T19:37:46.384Z,9.46
2023-03-08T19:40:15.299Z,9.54
2023-03-08T19:42:43.903Z,9.66
2023-03-08T19:45:13.403Z,9.71
2023-03-08T19:47:42.055Z,9.71
2023-03-08T19:50:13.191Z,9.68
2023-03-08T19:52:41.539Z,9.63
2023-03-08T19:55:10.512Z,9.59
2023-03-08T19:57:38.854Z,9.58
2023-03-08T20:00:08.478Z,9.53
2023-03-08T20:02:37.969Z,9.51
2023-03-08T20:05:06.753Z,9.45
2023-03-08T20:07:36.519Z,9.39
2023-03-08T20:10:15.690Z,9.40
2023-03-08T20:12:45.070Z,9.37
2023-03-08T20:15:13.789Z,9.36
2023-03-08T20:17:42.176Z,9.38
2023-03-08T20:20:12.588Z,9.39
2023-03-08T20:22:42.550Z,9.39
2023-03-08T20:25:12.587Z,9.41
2023-03-08T20:27:46.931Z,9.42
2023-03-08T20:30:15.754Z,9.40
2023-03-08T20:32:44.159Z,9.42
2023-03-08T20:35:14.068Z,9.45
2023-03-08T20:37:43.884Z,9.46
2023-03-08T20:40:14.420Z,9.47
2023-03-08T20:42:42.745Z,9.49
2023-03-08T20:45:11.746Z,9.48
2023-03-08T20:47:40.275Z,9.48
2023-03-08T20:50:09.521Z,9.46
2023-03-08T20:52:38.050Z,9.36
2023-03-08T20:55:09.059Z,9.31
2023-03-08T20:57:37.441Z,9.25
2023-03-08T21:00:08.485Z,9.14
2023-03-08T21:02:37.184Z,9.10
2023-03-08T21:05:06.789Z,9.14
2023-03-08T21:07:35.342Z,9.17
2023-03-08T21:10:03.781Z,9.19
2023-03-08T21:12:33.718Z,9.17
2023-03-08T21:15:04.097Z,9.16
2023-03-08T21:17:36.124Z,9.16
2023-03-08T21:20:05.983Z,9.17
2023-03-08T21:22:38.383Z,9.18
2023-03-08T21:25:07.573Z,9.17
2023-03-08T21:27:37.989Z,9.19
2023-03-08T21:30:07.717Z,9.18
2023-03-08T21:32:36.094Z,9.19
2023-03-08T21:35:05.001Z,9.17
2023-03-08T21:37:33.369Z,9.16
2023-03-08T21:40:01.808Z,9.13
2023-03-08T21:42:30.150Z,9.10
2023-03-08T21:44:59.911Z,9.06
2023-03-08T21:47:28.859Z,9.04
2023-03-08T21:49:57.327Z,9.02
2023-03-08T21:52:25.816Z,9.00
2023-03-08T21:54:54.283Z,8.96
2023-03-08T21:57:22.586Z,8.93
2023-03-08T21:59:51.230Z,8.91
2023-03-08T22:02:20.888Z,8.90
2023-03-08T22:04:49.497Z,8.90
2023-03-08T22:07:19.377Z,8.90
2023-03-08T22:09:47.857Z,8.87
2023-03-08T22:12:16.293Z,8.86
2023-03-08T22:14:44.997Z,8.85
2023-03-08T22:17:14.634Z,8.83
2023-03-08T22:19:44.927Z,8.85
2023-03-08T22:22:13.361Z,8.87
2023-03-08T22:24:41.711Z,8.86
2023-03-08T22:27:10.888Z,8.80
2023-03-08T22:29:39.507Z,8.72
2023-03-08T22:32:08.800Z,8.67
2023-03-08T22:34:37.334Z,8.58
2023-03-08T22:37:07.489Z,8.51
2023-03-08T22:39:36.077Z,8.48
2023-03-08T22:42:05.118Z,8.48
2023-03-08T22:44:33.971Z,8.50
2023-03-08T22:47:02.473Z,8.57
2023-03-08T22:49:30.966Z,8.67
2023-03-08T22:52:00.839Z,8.73
2023-03-08T22:54:33.696Z,8.76
2023-03-08T22:57:02.357Z,8.78
2023-03-08T22:59:30.741Z,8.80
2023-03-08T23:02:04.961Z,8.81
2023-03-08T23:04:33.396Z,8.82
2023-03-08T23:07:01.884Z,8.82
2023-03-08T23:09:30.611Z,8.82
2023-03-08T23:12:02.743Z,8.82
2023-03-08T23:14:31.446Z,8.82
2023-03-08T23:17:00.379Z,8.83
2023-03-08T23:19:29.010Z,8.84
2023-03-08T23:21:57.804Z,8.85
2023-03-08T23:24:26.411Z,8.83
2023-03-08T23:27:00.182Z,8.83
2023-03-08T23:29:30.162Z,8.82
2023-03-08T23:31:59.061Z,8.80
2023-03-08T23:34:27.511Z,8.77
2023-03-08T23:36:55.993Z,8.78
2023-03-08T23:39:24.360Z,8.80
2023-03-08T23:41:54.703Z,8.81
2023-03-08T23:44:23.021Z,8.81
2023-03-08T23:46:52.738Z,8.83
2023-03-08T23:49:21.398Z,8.87
2023-03-08T23:51:49.768Z,8.91
2023-03-08T23:54:18.123Z,8.95
2023-03-08T23:56:46.481Z,8.99
2023-03-08T23:59:18.904Z,9.03
